createdAt,value
2023-02-16T00:00:06.453Z,31.20
2023-02-16T00:05:33.883Z,32.70
2023-02-16T00:10:40.378Z,28.10
2023-02-16T00:15:44.007Z,29.60
2023-02-16T00:20:49.128Z,30.70
2023-02-16T00:25:52.078Z,27.40
2023-02-16T00:30:55.192Z,26.40
2023-02-16T00:35:58.353Z,32.30
2023-02-16T00:41:01.765Z,30.20
2023-02-16T00:46:05.254Z,31.30
2023-02-16T00:51:24.744Z,29.70
2023-02-16T00:56:28.842Z,24.80
2023-02-16T01:01:34.393Z,27.00
2023-02-16T01:06:56.100Z,25.10
2023-02-16T01:12:00.646Z,30.60
2023-02-16T01:17:03.846Z,29.30
2023-02-16T01:22:07.006Z,31.30
2023-02-16T01:27:14.246Z,28.10
2023-02-16T01:32:17.523Z,29.10
2023-02-16T01:37:20.558Z,30.20
2023-02-16T01:42:38.848Z,32.10
2023-02-16T01:47:54.441Z,27.00
2023-02-16T01:53:03.352Z,30.10
2023-02-16T01:58:24.863Z,27.30
2023-02-16T02:03:52.022Z,30.20
2023-02-16T02:09:05.631Z,30.90
2023-02-16T02:14:30.246Z,31.60
2023-02-16T02:19:52.825Z,29.90
2023-02-16T02:25:16.843Z,29.10
2023-02-16T02:30:41.811Z,28.50
2023-02-16T02:36:16.524Z,29.70
2023-02-16T02:42:01.857Z,27.80
2023-02-16T02:47:05.030Z,24.70
2023-02-16T02:52:08.836Z,27.10
2023-02-16T02:57:40.652Z,27.50
2023-02-16T03:02:49.493Z,26.50
2023-02-16T03:08:06.496Z,27.60
2023-02-16T03:13:22.450Z,27.50
2023-02-16T03:18:47.205Z,24.90
2023-02-16T03:24:10.200Z,30.80
2023-02-16T03:29:22.790Z,31.20
2023-02-16T03:34:26.616Z,32.20
2023-02-16T03:39:31.822Z,26.60
2023-02-16T03:44:34.659Z,28.00
2023-02-16T03:49:37.659Z,32.30
2023-02-16T03:54:40.690Z,31.30
2023-02-16T03:59:43.612Z,28.80
2023-02-16T04:04:47.064Z,31.60
2023-02-16T04:09:49.962Z,30.40
2023-02-16T04:14:52.884Z,38.20
2023-02-16T04:19:55.836Z,33.40
2023-02-16T04:24:58.818Z,33.70
2023-02-16T04:30:02.123Z,32.10
2023-02-16T04:35:06.030Z,36.70
2023-02-16T04:40:13.939Z,35.70
2023-02-16T04:45:16.901Z,38.20
2023-02-16T04:50:20.169Z,33.20
2023-02-16T04:55:25.592Z,36.00
2023-02-16T05:00:29.115Z,35.50
2023-02-16T05:05:32.109Z,35.90
2023-02-16T05:10:35.097Z,32.40
2023-02-16T05:15:38.307Z,34.80
2023-02-16T05:20:59.894Z,19.90
2023-02-16T05:26:02.941Z,35.70
2023-02-16T05:31:06.596Z,35.00
2023-02-16T05:36:10.222Z,33.70
2023-02-16T05:41:23.770Z,34.30
2023-02-16T05:46:29.377Z,29.60
2023-02-16T05:51:33.411Z,32.90
2023-02-16T05:56:36.907Z,33.50
2023-02-16T06:01:41.158Z,30.70
2023-02-16T06:06:44.410Z,31.60
2023-02-16T06:11:47.514Z,30.70
2023-02-16T06:16:54.027Z,31.40
2023-02-16T06:21:57.063Z,28.00
2023-02-16T06:26:59.996Z,30.40
2023-02-16T06:32:03.358Z,28.90
2023-02-16T06:37:08.190Z,27.70
2023-02-16T06:42:11.152Z,31.60
2023-02-16T06:47:14.208Z,30.10
2023-02-16T06:52:17.198Z,29.80
2023-02-16T06:57:20.326Z,33.10
2023-02-16T07:02:23.241Z,31.60
2023-02-16T07:07:26.261Z,31.90
2023-02-16T07:12:29.415Z,41.70
2023-02-16T07:17:32.687Z,42.20
2023-02-16T07:22:35.582Z,35.00
2023-02-16T07:27:38.660Z,30.80
2023-02-16T07:32:41.760Z,30.10
2023-02-16T07:37:44.730Z,26.70
2023-02-16T07:42:47.672Z,26.20
2023-02-16T07:47:50.582Z,32.10
2023-02-16T07:52:53.490Z,35.20
2023-02-16T07:58:00.271Z,36.10
2023-02-16T08:03:04.392Z,32.80
2023-02-16T08:08:07.533Z,31.80
2023-02-16T08:13:10.799Z,32.20
2023-02-16T08:18:14.140Z,31.60
2023-02-16T08:23:17.113Z,35.80
2023-02-16T08:28:22.255Z,31.20
2023-02-16T08:33:25.437Z,34.40
2023-02-16T08:38:28.427Z,32.60
2023-02-16T08:43:31.354Z,32.80
2023-02-16T08:48:35.931Z,30.60
2023-02-16T08:53:38.896Z,34.70
2023-02-16T08:58:42.659Z,34.10
2023-02-16T09:03:46.525Z,31.00
2023-02-16T09:08:57.502Z,29.90
2023-02-16T09:14:00.577Z,36.00
2023-02-16T09:19:03.715Z,34.50
2023-02-16T09:24:09.202Z,36.70
2023-02-16T09:29:14.992Z,29.40
2023-02-16T09:34:22.156Z,33.10
2023-02-16T09:39:25.590Z,29.40
2023-02-16T09:45:11.946Z,26.70
2023-02-16T09:50:52.607Z,27.60
2023-02-16T09:56:28.324Z,26.60
2023-02-16T10:01:57.268Z,23.40
2023-02-16T10:07:31.798Z,24.20
2023-02-16T10:12:44.040Z,29.70
2023-02-16T10:18:15.596Z,25.60
2023-02-16T10:23:48.593Z,25.40
2023-02-16T10:29:06.758Z,24.90
2023-02-16T10:34:39.577Z,31.30
2023-02-16T10:40:01.128Z,36.70
2023-02-16T10:45:37.020Z,51.20
2023-02-16T10:51:13.090Z,37.70
2023-02-16T10:56:49.788Z,37.80
2023-02-16T11:01:58.432Z,32.00
2023-02-16T11:07:08.888Z,35.80
2023-02-16T11:12:42.337Z,39.70
2023-02-16T11:18:08.318Z,37.00
2023-02-16T11:23:17.477Z,32.60
2023-02-16T11:28:44.909Z,41.10
2023-02-16T11:34:16.980Z,28.80
2023-02-16T11:39:24.948Z,38.80
2023-02-16T11:44:44.701Z,35.60
2023-02-16T11:49:47.655Z,43.20
2023-02-16T11:54:57.650Z,38.00
2023-02-16T12:00:18.761Z,51.40
2023-02-16T12:05:42.661Z,34.70
2023-02-16T12:11:10.036Z,38.80
2023-02-16T12:16:34.151Z,31.30
2023-02-16T12:22:21.098Z,32.20
2023-02-16T12:28:41.803Z,33.20
2023-02-16T12:33:57.692Z,29.20
2023-02-16T12:39:26.425Z,32.40
2023-02-16T12:44:42.674Z,32.70
2023-02-16T12:50:03.705Z,28.60
2023-02-16T12:55:49.165Z,37.50
2023-02-16T13:01:00.320Z,32.10
2023-02-16T13:06:26.663Z,30.40
2023-02-16T13:11:52.374Z,34.80
2023-02-16T13:17:16.692Z,37.80
2023-02-16T13:22:44.068Z,31.30
2023-02-16T13:28:31.651Z,35.80
2023-02-16T13:34:05.700Z,36.70
2023-02-16T13:39:25.629Z,36.70
2023-02-16T13:44:50.770Z,31.40
2023-02-16T13:50:08.772Z,32.90
2023-02-16T13:55:39.984Z,28.90
2023-02-16T14:00:49.403Z,34.20
2023-02-16T14:06:27.949Z,30.30
2023-02-16T14:11:51.584Z,27.70
2023-02-16T14:16:54.741Z,31.40
2023-02-16T14:22:11.944Z,39.60
2023-02-16T14:27:45.944Z,38.00
2023-02-16T14:33:07.552Z,42.50
2023-02-16T14:38:26.967Z,34.80
2023-02-16T14:43:46.839Z,32.40
2023-02-16T14:49:36.404Z,34.20
2023-02-16T14:55:07.700Z,33.50
2023-02-16T15:00:58.350Z,33.50
2023-02-16T15:06:06.457Z,33.30
2023-02-16T15:11:26.098Z,33.90
2023-02-16T15:16:31.466Z,23.80
2023-02-16T15:21:34.550Z,26.60
2023-02-16T15:26:38.384Z,33.10
2023-02-16T15:31:41.789Z,29.40
2023-02-16T15:36:45.782Z,30.20
2023-02-16T15:41:51.960Z,30.80
2023-02-16T15:47:08.358Z,33.50
2023-02-16T15:52:38.175Z,41.30
2023-02-16T15:57:41.697Z,34.50
2023-02-16T16:02:55.402Z,43.90
2023-02-16T16:08:00.456Z,41.70
2023-02-16T16:13:09.020Z,50.80
2023-02-16T16:18:40.221Z,66.30
2023-02-16T16:23:56.715Z,52.20
2023-02-16T16:29:00.047Z,48.00
2023-02-16T16:34:07.477Z,61.30
2023-02-16T16:39:16.246Z,53.20
2023-02-16T16:45:00.767Z,49.20
2023-02-16T16:50:09.899Z,50.60
2023-02-16T16:55:19.006Z,103.70
2023-02-16T17:00:25.275Z,76.70
2023-02-16T17:05:28.776Z,75.70
2023-02-16T17:10:32.028Z,57.00
2023-02-16T17:15:51.246Z,47.00
2023-02-16T17:20:54.721Z,42.20
2023-02-16T17:25:58.024Z,40.70
2023-02-16T17:31:00.945Z,54.90
2023-02-16T17:36:07.494Z,47.50
2023-02-16T17:41:23.195Z,49.70
2023-02-16T17:46:27.500Z,48.60
2023-02-16T17:51:32.326Z,45.50
2023-02-16T17:56:39.762Z,50.00
2023-02-16T18:01:44.865Z,34.30
2023-02-16T18:06:47.784Z,48.30
2023-02-16T18:11:51.591Z,46.50
2023-02-16T18:16:54.616Z,47.90
2023-02-16T18:21:57.942Z,51.00
2023-02-16T18:27:00.925Z,49.30
2023-02-16T18:32:04.591Z,79.30
2023-02-16T18:37:07.503Z,59.40
2023-02-16T18:42:11.366Z,62.20
2023-02-16T18:47:15.063Z,70.40
2023-02-16T18:52:19.488Z,80.30
2023-02-16T18:57:38.309Z,84.50
2023-02-16T19:02:43.431Z,78.50
2023-02-16T19:07:47.172Z,73.80
2023-02-16T19:12:50.274Z,68.80
2023-02-16T19:17:53.228Z,57.60
2023-02-16T19:22:58.747Z,54.60
2023-02-16T19:28:01.787Z,52.50
2023-02-16T19:33:04.746Z,62.70
2023-02-16T19:38:08.075Z,65.10
2023-02-16T19:43:11.008Z,75.90
2023-02-16T19:48:14.017Z,58.80
2023-02-16T19:53:16.968Z,45.40
2023-02-16T19:58:20.026Z,46.50
2023-02-16T20:03:22.980Z,50.90
2023-02-16T20:08:25.937Z,49.30
2023-02-16T20:13:28.818Z,55.90
2023-02-16T20:18:32.695Z,55.30
2023-02-16T20:23:42.127Z,40.80
2023-02-16T20:29:13.111Z,43.80
2023-02-16T20:34:16.424Z,41.90
2023-02-16T20:39:20.302Z,37.50
2023-02-16T20:44:23.429Z,39.80
2023-02-16T20:49:26.446Z,39.80
2023-02-16T20:54:29.763Z,40.80
2023-02-16T20:59:32.831Z,38.40
2023-02-16T21:04:35.825Z,33.10
2023-02-16T21:09:38.734Z,42.20
2023-02-16T21:14:41.843Z,48.70
2023-02-16T21:19:45.050Z,42.80
2023-02-16T21:24:47.963Z,44.50
2023-02-16T21:29:50.974Z,49.50
2023-02-16T21:40:32.149Z,44.70
2023-02-16T21:45:35.483Z,50.10
2023-02-16T21:50:42.368Z,44.90
2023-02-16T21:56:04.172Z,42.80
2023-02-16T22:01:09.861Z,48.30
2023-02-16T22:06:12.830Z,50.20
2023-02-16T22:11:15.919Z,45.80
2023-02-16T22:16:20.423Z,49.40
2023-02-16T22:21:23.545Z,52.90
2023-02-16T22:26:31.343Z,49.90
2023-02-16T22:31:35.147Z,53.20
2023-02-16T22:36:38.228Z,53.10
2023-02-16T22:41:41.342Z,52.00
2023-02-16T22:46:44.253Z,49.30
2023-02-16T22:51:47.245Z,45.00
2023-02-16T22:56:50.124Z,51.30
2023-02-16T23:01:53.147Z,52.50
2023-02-16T23:06:56.077Z,55.10
2023-02-16T23:11:59.039Z,54.30
2023-02-16T23:17:01.926Z,54.10
2023-02-16T23:22:04.830Z,55.20
2023-02-16T23:27:07.941Z,54.90
2023-02-16T23:32:10.977Z,53.60
2023-02-16T23:37:13.827Z,51.80
2023-02-16T23:42:16.738Z,57.50
2023-02-16T23:47:19.991Z,55.70
2023-02-16T23:52:23.166Z,56.60
2023-02-16T23:57:26.082Z,56.80
